createdAt,value
2023-01-18T00:00:56.654Z,15.20
2023-01-18T00:01:57.703Z,16.40
2023-01-18T00:02:57.083Z,16.10
2023-01-18T00:03:56.660Z,16.60
2023-01-18T00:04:56.660Z,15.70
2023-01-18T00:05:56.648Z,15.60
2023-01-18T00:06:56.622Z,13.60
2023-01-18T00:07:56.619Z,13.50
2023-01-18T00:08:56.609Z,13.00
2023-01-18T00:09:56.609Z,13.70
2023-01-18T00:10:56.616Z,13.20
2023-01-18T00:11:56.579Z,13.30
2023-01-18T00:12:57.122Z,13.20
2023-01-18T00:13:56.569Z,13.40
2023-01-18T00:14:56.571Z,12.80
2023-01-18T00:15:56.594Z,13.20
2023-01-18T00:16:56.575Z,13.20
2023-01-18T00:17:56.532Z,13.50
2023-01-18T00:18:56.535Z,12.30
2023-01-18T00:19:56.530Z,12.60
2023-01-18T00:20:56.551Z,12.50
2023-01-18T00:21:56.513Z,12.70
2023-01-18T00:22:56.929Z,12.20
2023-01-18T00:23:56.503Z,12.40
2023-01-18T00:24:56.502Z,12.50
2023-01-18T00:25:56.510Z,12.50
2023-01-18T00:26:56.545Z,13.10
2023-01-18T00:27:56.467Z,12.40
2023-01-18T00:28:56.480Z,12.50
2023-01-18T00:29:56.430Z,13.10
2023-01-18T00:30:56.463Z,12.50
2023-01-18T00:31:56.525Z,12.90
2023-01-18T00:32:56.915Z,12.30
2023-01-18T00:33:56.425Z,13.00
2023-01-18T00:34:56.415Z,12.00
2023-01-18T00:35:56.416Z,11.90
2023-01-18T00:36:56.391Z,11.40
2023-01-18T00:37:56.417Z,12.70
2023-01-18T00:38:56.412Z,12.10
2023-01-18T00:39:56.382Z,11.70
2023-01-18T00:40:56.367Z,12.10
2023-01-18T00:41:56.373Z,11.50
2023-01-18T00:42:56.737Z,11.80
2023-01-18T00:43:56.354Z,11.80
2023-01-18T00:44:56.355Z,11.90
2023-01-18T00:45:56.394Z,10.80
2023-01-18T00:46:56.326Z,11.40
2023-01-18T00:47:56.384Z,11.00
2023-01-18T00:48:56.345Z,11.70
2023-01-18T00:49:56.292Z,11.00
2023-01-18T00:50:56.292Z,11.20
2023-01-18T00:51:58.704Z,11.00
2023-01-18T00:52:57.866Z,10.90
2023-01-18T00:53:56.316Z,10.70
2023-01-18T00:54:56.261Z,11.50
2023-01-18T00:55:56.260Z,9.80
2023-01-18T00:56:56.253Z,11.40
2023-01-18T00:57:56.238Z,11.00
2023-01-18T00:58:56.241Z,11.10
2023-01-18T00:59:56.267Z,10.50
2023-01-18T01:00:56.344Z,10.60
2023-01-18T01:01:56.421Z,10.50
2023-01-18T01:02:56.743Z,10.70
2023-01-18T01:03:56.196Z,10.60
2023-01-18T01:04:56.204Z,10.70
2023-01-18T01:05:56.190Z,10.20
2023-01-18T01:06:56.169Z,10.20
2023-01-18T01:07:56.169Z,10.10
2023-01-18T01:08:56.156Z,10.20
2023-01-18T01:09:56.187Z,10.00
2023-01-18T01:10:56.674Z,10.20
2023-01-18T01:11:56.183Z,9.80
2023-01-18T01:12:56.526Z,9.90
2023-01-18T01:13:56.112Z,9.60
2023-01-18T01:14:56.118Z,9.90
2023-01-18T01:15:56.134Z,9.90
2023-01-18T01:16:56.181Z,9.70
2023-01-18T01:17:56.086Z,9.30
2023-01-18T01:18:56.084Z,9.70
2023-01-18T01:19:56.081Z,9.90
2023-01-18T01:20:56.077Z,9.50
2023-01-18T01:21:56.077Z,10.10
2023-01-18T01:22:56.501Z,10.00
2023-01-18T01:23:56.061Z,10.50
2023-01-18T01:24:56.042Z,10.30
2023-01-18T01:25:56.064Z,11.10
2023-01-18T01:26:56.029Z,10.90
2023-01-18T01:27:56.009Z,11.80
2023-01-18T01:28:56.039Z,10.80
2023-01-18T01:29:56.004Z,11.90
2023-01-18T01:30:56.034Z,11.80
2023-01-18T01:31:56.006Z,12.00
2023-01-18T01:32:56.423Z,12.10
2023-01-18T01:33:55.987Z,12.20
2023-01-18T01:34:55.956Z,12.20
2023-01-18T01:35:55.971Z,12.70
2023-01-18T01:36:55.968Z,12.30
2023-01-18T01:37:55.957Z,12.10
2023-01-18T01:38:55.934Z,12.60
2023-01-18T01:39:55.923Z,12.80
2023-01-18T01:40:55.970Z,12.60
2023-01-18T01:41:55.916Z,12.70
2023-01-18T01:42:56.307Z,12.50
2023-01-18T01:43:55.902Z,12.70
2023-01-18T01:44:55.890Z,12.90
2023-01-18T01:45:55.887Z,12.80
2023-01-18T01:46:56.878Z,13.40
2023-01-18T01:47:55.877Z,13.50
2023-01-18T01:48:55.851Z,12.60
2023-01-18T01:49:55.857Z,13.60
2023-01-18T01:50:55.840Z,12.80
2023-01-18T01:51:55.837Z,13.00
2023-01-18T01:52:56.286Z,12.90
2023-01-18T01:53:55.887Z,13.20
2023-01-18T01:54:55.830Z,13.10
2023-01-18T01:55:56.318Z,12.80
2023-01-18T01:56:55.824Z,13.00
2023-01-18T01:57:55.814Z,12.80
2023-01-18T01:58:56.356Z,12.80
2023-01-18T01:59:55.766Z,13.20
2023-01-18T02:00:55.879Z,12.90
2023-01-18T02:01:55.879Z,13.10
2023-01-18T02:02:56.029Z,13.40
2023-01-18T02:03:55.769Z,13.20
2023-01-18T02:04:55.763Z,12.90
2023-01-18T02:05:55.722Z,13.50
2023-01-18T02:06:56.739Z,12.80
2023-01-18T02:07:55.728Z,13.60
2023-01-18T02:08:55.713Z,13.20
2023-01-18T02:09:55.718Z,13.40
2023-01-18T02:10:55.691Z,13.50
2023-01-18T02:11:55.695Z,13.00
2023-01-18T02:12:56.086Z,12.60
2023-01-18T02:13:55.676Z,13.00
2023-01-18T02:14:55.691Z,12.50
2023-01-18T02:15:55.659Z,13.50
2023-01-18T02:16:55.683Z,13.20
2023-01-18T02:17:55.636Z,12.60
2023-01-18T02:18:55.631Z,12.40
2023-01-18T02:19:55.637Z,11.80
2023-01-18T02:20:55.642Z,11.90
2023-01-18T02:21:55.627Z,11.30
2023-01-18T02:22:55.916Z,11.00
2023-01-18T02:23:55.612Z,11.50
2023-01-18T02:24:57.998Z,10.90
2023-01-18T02:25:55.584Z,10.80
2023-01-18T02:26:55.605Z,10.60
2023-01-18T02:27:55.569Z,10.60
2023-01-18T02:28:56.550Z,11.20
2023-01-18T02:29:55.603Z,10.00
2023-01-18T02:30:55.545Z,10.20
2023-01-18T02:31:55.552Z,11.00
2023-01-18T02:33:27.447Z,10.20
2023-01-18T02:33:55.551Z,11.10
2023-01-18T02:34:55.587Z,10.80
2023-01-18T02:35:55.611Z,10.00
2023-01-18T02:36:55.510Z,10.90
2023-01-18T02:37:55.498Z,11.00
2023-01-18T02:38:55.500Z,10.10
2023-01-18T02:39:55.532Z,10.30
2023-01-18T02:40:55.499Z,10.80
2023-01-18T02:41:55.513Z,10.70
2023-01-18T02:42:55.798Z,10.30
2023-01-18T02:43:55.477Z,11.10
2023-01-18T02:44:55.487Z,11.60
2023-01-18T02:45:55.503Z,10.60
2023-01-18T02:46:55.470Z,10.90
2023-01-18T02:47:55.452Z,11.50
2023-01-18T02:48:55.422Z,11.70
2023-01-18T02:49:55.458Z,11.30
2023-01-18T02:50:55.484Z,11.00
2023-01-18T02:51:55.439Z,11.40
2023-01-18T02:52:55.657Z,10.70
2023-01-18T02:53:55.407Z,11.50
2023-01-18T02:54:55.400Z,10.80
2023-01-18T02:55:55.399Z,10.80
2023-01-18T02:56:55.361Z,10.70
2023-01-18T02:57:55.384Z,11.00
2023-01-18T02:58:55.367Z,10.80
2023-01-18T02:59:55.388Z,10.50
2023-01-18T03:00:55.354Z,10.80
2023-01-18T03:01:55.375Z,10.80
2023-01-18T03:02:55.728Z,10.80
2023-01-18T03:03:55.336Z,11.10
2023-01-18T03:04:55.390Z,11.30
2023-01-18T03:05:55.303Z,10.90
2023-01-18T03:06:55.292Z,10.90
2023-01-18T03:07:55.275Z,11.00
2023-01-18T03:08:56.263Z,10.50
2023-01-18T03:09:55.301Z,10.90
2023-01-18T03:10:56.274Z,10.70
2023-01-18T03:11:55.263Z,11.40
2023-01-18T03:12:55.450Z,11.30
2023-01-18T03:13:55.272Z,11.00
2023-01-18T03:14:55.279Z,11.00
2023-01-18T03:15:55.307Z,11.00
2023-01-18T03:16:55.239Z,11.10
2023-01-18T03:17:55.237Z,10.90
2023-01-18T03:18:55.213Z,10.50
2023-01-18T03:19:55.237Z,10.40
2023-01-18T03:20:55.208Z,10.30
2023-01-18T03:21:55.208Z,10.80
2023-01-18T03:22:55.649Z,10.80
2023-01-18T03:23:55.169Z,10.50
2023-01-18T03:24:55.220Z,10.90
2023-01-18T03:25:55.181Z,11.10
2023-01-18T03:26:55.245Z,10.80
2023-01-18T03:27:55.176Z,11.30
2023-01-18T03:28:55.179Z,10.80
2023-01-18T03:29:55.155Z,11.00
2023-01-18T03:30:55.211Z,11.00
2023-01-18T03:31:55.113Z,11.00
2023-01-18T03:32:55.673Z,10.80
2023-01-18T03:33:55.128Z,11.10
2023-01-18T03:34:55.101Z,11.50
2023-01-18T03:35:55.098Z,11.30
2023-01-18T03:36:55.106Z,10.40
2023-01-18T03:37:55.074Z,11.10
2023-01-18T03:38:55.102Z,11.00
2023-01-18T03:39:55.061Z,11.50
2023-01-18T03:40:55.084Z,11.00
2023-01-18T03:41:55.099Z,10.40
2023-01-18T03:42:55.282Z,10.60
2023-01-18T03:43:55.062Z,10.50
2023-01-18T03:44:55.043Z,10.30
2023-01-18T03:45:55.169Z,10.20
2023-01-18T03:46:55.050Z,10.20
2023-01-18T04:03:00.446Z,7.10
2023-01-18T04:03:59.809Z,8.00
2023-01-18T04:04:59.846Z,10.20
2023-01-18T04:06:00.927Z,10.80
2023-01-18T04:07:00.930Z,10.20
2023-01-18T04:08:00.949Z,10.40
2023-01-18T04:09:01.548Z,10.70
2023-01-18T04:10:01.027Z,10.60
2023-01-18T04:11:00.932Z,11.30
2023-01-18T04:12:00.887Z,10.80
2023-01-18T04:13:01.514Z,10.60
2023-01-18T04:14:00.889Z,10.20
2023-01-18T04:15:00.878Z,10.40
2023-01-18T04:16:00.906Z,9.90
2023-01-18T04:17:00.877Z,10.90
2023-01-18T04:18:00.863Z,9.60
2023-01-18T04:19:00.830Z,10.20
2023-01-18T04:20:00.844Z,10.20
2023-01-18T04:21:00.958Z,10.10
2023-01-18T04:22:00.818Z,10.10
2023-01-18T04:23:01.234Z,9.90
2023-01-18T04:24:00.799Z,10.00
2023-01-18T04:25:00.807Z,10.30
2023-01-18T04:26:00.816Z,10.00
2023-01-18T04:27:00.796Z,10.00
2023-01-18T04:28:00.811Z,9.90
2023-01-18T04:29:00.765Z,9.60
2023-01-18T04:30:00.806Z,10.00
2023-01-18T04:31:00.803Z,9.70
2023-01-18T04:32:00.761Z,9.50
2023-01-18T04:33:01.290Z,9.50
2023-01-18T04:34:00.751Z,9.90
2023-01-18T04:35:00.716Z,9.40
2023-01-18T04:36:00.758Z,9.60
2023-01-18T04:37:00.794Z,9.80
2023-01-18T04:38:00.715Z,9.10
2023-01-18T04:39:00.701Z,9.10
2023-01-18T04:40:00.688Z,9.50
2023-01-18T04:41:00.694Z,9.30
2023-01-18T04:42:00.656Z,9.50
2023-01-18T04:43:01.115Z,10.00
2023-01-18T04:44:00.658Z,9.30
2023-01-18T04:45:00.636Z,10.00
2023-01-18T04:46:00.626Z,9.70
2023-01-18T04:47:00.635Z,9.20
2023-01-18T04:48:00.677Z,9.50
2023-01-18T04:49:00.607Z,9.60
2023-01-18T04:50:00.603Z,8.80
2023-01-18T04:51:00.617Z,9.20
2023-01-18T04:52:01.557Z,9.80
2023-01-18T04:53:01.111Z,9.90
2023-01-18T04:54:00.570Z,8.80
2023-01-18T04:55:00.575Z,9.60
2023-01-18T04:56:00.569Z,9.00
2023-01-18T04:57:00.595Z,9.20
2023-01-18T04:58:00.566Z,8.50
2023-01-18T04:59:00.555Z,9.40
2023-01-18T05:00:02.419Z,9.30
2023-01-18T05:01:00.616Z,8.60
2023-01-18T05:02:00.529Z,8.80
2023-01-18T05:03:00.855Z,9.40
2023-01-18T05:04:00.525Z,9.20
2023-01-18T05:05:00.496Z,9.50
2023-01-18T05:06:00.529Z,8.80
2023-01-18T05:07:00.493Z,9.20
2023-01-18T05:08:00.518Z,8.80
2023-01-18T05:09:00.463Z,9.00
2023-01-18T05:10:00.492Z,9.00
2023-01-18T05:11:01.050Z,9.10
2023-01-18T05:12:00.495Z,9.90
2023-01-18T05:13:00.980Z,9.00
2023-01-18T05:14:00.475Z,9.20
2023-01-18T05:15:00.479Z,9.20
2023-01-18T05:16:00.523Z,9.10
2023-01-18T05:17:00.408Z,9.20
2023-01-18T05:18:00.437Z,9.30
2023-01-18T05:19:00.383Z,9.50
2023-01-18T05:20:00.384Z,9.50
2023-01-18T05:21:00.368Z,9.60
2023-01-18T05:22:00.402Z,9.70
2023-01-18T05:23:01.249Z,8.80
2023-01-18T05:24:00.359Z,8.90
2023-01-18T05:25:00.380Z,8.70
2023-01-18T05:26:00.362Z,9.40
2023-01-18T05:27:00.348Z,9.30
2023-01-18T05:28:00.321Z,9.00
2023-01-18T05:29:00.308Z,9.50
2023-01-18T05:30:00.348Z,9.10
2023-01-18T05:31:00.328Z,9.70
2023-01-18T05:32:00.306Z,9.40
2023-01-18T05:33:01.644Z,9.20
2023-01-18T05:34:00.297Z,9.30
2023-01-18T05:35:00.291Z,8.90
2023-01-18T05:36:00.284Z,9.10
2023-01-18T05:37:00.265Z,9.00
2023-01-18T05:38:00.265Z,8.80
2023-01-18T05:39:00.253Z,8.70
2023-01-18T05:40:00.241Z,9.20
2023-01-18T05:41:00.256Z,8.80
2023-01-18T05:42:00.415Z,8.80
2023-01-18T05:43:01.400Z,9.10
2023-01-18T05:44:01.213Z,8.80
2023-01-18T05:45:00.226Z,9.00
2023-01-18T05:46:00.235Z,8.50
2023-01-18T05:47:00.214Z,9.40
2023-01-18T05:48:00.185Z,9.00
2023-01-18T05:49:00.164Z,9.10
2023-01-18T05:50:00.149Z,8.60
2023-01-18T05:51:00.161Z,9.00
2023-01-18T05:52:00.160Z,8.80
2023-01-18T05:53:00.523Z,9.00
2023-01-18T05:54:00.150Z,9.00
2023-01-18T05:55:00.152Z,9.10
2023-01-18T05:56:00.182Z,9.00
2023-01-18T05:57:00.117Z,9.10
2023-01-18T05:58:01.040Z,9.30
2023-01-18T05:59:00.093Z,8.50
2023-01-18T06:00:01.083Z,9.00
2023-01-18T06:01:00.132Z,8.50
2023-01-18T06:02:00.154Z,8.90
2023-01-18T06:03:00.602Z,8.70
2023-01-18T06:04:00.121Z,8.40
2023-01-18T06:05:00.047Z,8.40
2023-01-18T06:06:00.069Z,9.60
2023-01-18T06:07:00.050Z,10.10
2023-01-18T06:08:00.024Z,9.10
2023-01-18T06:09:00.094Z,8.90
2023-01-18T06:10:00.021Z,8.80
2023-01-18T06:11:00.020Z,8.90
2023-01-18T06:12:00.012Z,9.00
2023-01-18T06:13:00.468Z,8.70
2023-01-18T06:14:00.049Z,8.80
2023-01-18T06:14:59.973Z,8.60
2023-01-18T06:16:00.003Z,8.70
2023-01-18T06:17:01.130Z,9.30
2023-01-18T06:18:00.922Z,11.70
2023-01-18T06:18:59.956Z,11.40
2023-01-18T06:19:59.958Z,10.80
2023-01-18T06:21:01.541Z,9.80
2023-01-18T06:22:00.947Z,10.50
2023-01-18T06:23:00.355Z,9.20
2023-01-18T06:23:59.948Z,9.00
2023-01-18T06:24:59.945Z,21.40
2023-01-18T06:25:59.903Z,16.00
2023-01-18T06:26:59.931Z,12.50
2023-01-18T06:27:59.885Z,12.70
2023-01-18T06:28:59.936Z,12.20
2023-01-18T06:29:59.873Z,11.30
2023-01-18T06:30:59.900Z,10.90
2023-01-18T06:31:59.988Z,11.00
2023-01-18T06:33:00.329Z,10.40
2023-01-18T06:33:59.868Z,10.70
2023-01-18T06:34:59.858Z,10.00
2023-01-18T06:35:59.836Z,10.30
2023-01-18T06:36:59.812Z,10.10
2023-01-18T06:37:59.836Z,10.30
2023-01-18T06:38:59.802Z,10.10
2023-01-18T06:40:01.921Z,10.00
2023-01-18T06:40:59.811Z,10.00
2023-01-18T06:41:59.803Z,10.00
2023-01-18T06:43:00.235Z,10.30
2023-01-18T06:43:59.835Z,10.10
2023-01-18T06:44:59.786Z,9.90
2023-01-18T06:45:59.809Z,10.60
2023-01-18T06:46:59.778Z,9.10
2023-01-18T06:47:59.760Z,9.40
2023-01-18T06:48:59.843Z,9.30
2023-01-18T06:49:59.753Z,9.30
2023-01-18T06:51:00.541Z,9.50
2023-01-18T06:51:59.727Z,9.40
2023-01-18T06:53:00.120Z,10.80
2023-01-18T06:53:59.715Z,10.20
2023-01-18T06:54:59.755Z,10.00
2023-01-18T06:55:59.685Z,10.20
2023-01-18T06:56:59.672Z,10.20
2023-01-18T06:57:59.652Z,9.90
2023-01-18T06:58:59.722Z,9.90
2023-01-18T06:59:59.672Z,10.30
2023-01-18T07:00:59.768Z,11.50
2023-01-18T07:01:59.852Z,11.50
2023-01-18T07:03:00.064Z,10.90
2023-01-18T07:03:59.662Z,10.20
2023-01-18T07:04:59.708Z,11.90
2023-01-18T07:05:59.602Z,11.20
2023-01-18T07:06:59.600Z,10.40
2023-01-18T07:07:59.606Z,11.30
2023-01-18T07:08:59.590Z,14.30
2023-01-18T07:09:59.573Z,14.70
2023-01-18T07:10:59.581Z,13.60
2023-01-18T07:12:00.593Z,15.50
2023-01-18T07:13:00.062Z,12.50
2023-01-18T07:13:59.568Z,13.00
2023-01-18T07:15:01.561Z,11.60
2023-01-18T07:16:01.203Z,13.20
2023-01-18T07:17:00.594Z,11.70
2023-01-18T07:17:59.535Z,11.90
2023-01-18T07:18:59.513Z,11.60
2023-01-18T07:20:00.493Z,11.80
2023-01-18T07:20:59.553Z,10.40
2023-01-18T07:21:59.519Z,10.60
2023-01-18T07:22:59.882Z,10.50
2023-01-18T07:23:59.465Z,11.30
2023-01-18T07:25:00.457Z,10.50
2023-01-18T07:25:59.482Z,11.20
2023-01-18T07:26:59.503Z,11.20
2023-01-18T07:27:59.460Z,12.00
2023-01-18T07:28:59.437Z,12.30
2023-01-18T07:29:59.448Z,12.00
2023-01-18T07:30:59.425Z,11.30
2023-01-18T07:31:59.502Z,11.90
2023-01-18T07:32:59.859Z,11.30
2023-01-18T07:33:59.436Z,12.10
2023-01-18T07:34:59.595Z,11.70
2023-01-18T07:36:00.416Z,10.70
2023-01-18T07:36:59.449Z,10.20
2023-01-18T07:37:59.402Z,11.30
2023-01-18T07:38:59.376Z,10.60
2023-01-18T07:39:59.389Z,10.40
2023-01-18T07:40:59.362Z,10.40
2023-01-18T07:41:59.366Z,11.20
2023-01-18T07:42:59.662Z,11.20
2023-01-18T07:43:59.894Z,10.70
2023-01-18T07:44:59.367Z,11.90
2023-01-18T07:45:59.377Z,12.40
2023-01-18T07:46:59.324Z,12.30
2023-01-18T07:47:59.314Z,12.20
2023-01-18T07:48:59.291Z,13.00
2023-01-18T07:49:59.294Z,12.50
2023-01-18T07:50:59.328Z,14.00
2023-01-18T07:51:59.284Z,22.20
2023-01-18T07:52:59.657Z,22.50
2023-01-18T07:53:59.275Z,26.30
2023-01-18T07:54:59.249Z,15.80
2023-01-18T07:55:59.241Z,18.10
2023-01-18T07:56:59.233Z,13.80
2023-01-18T07:57:59.246Z,14.50
2023-01-18T07:58:59.232Z,15.20
2023-01-18T07:59:59.221Z,14.30
2023-01-18T08:00:59.247Z,12.80
2023-01-18T08:01:59.259Z,13.30
2023-01-18T08:02:59.442Z,13.00
2023-01-18T08:04:00.199Z,13.10
2023-01-18T08:04:59.187Z,13.80
2023-01-18T08:05:59.180Z,26.70
2023-01-18T08:06:59.161Z,30.70
2023-01-18T08:07:59.163Z,28.50
2023-01-18T08:08:59.182Z,22.50
2023-01-18T08:09:59.158Z,26.30
2023-01-18T08:10:59.147Z,26.20
2023-01-18T08:11:59.122Z,26.10
2023-01-18T08:12:59.468Z,23.30
2023-01-18T08:13:59.116Z,22.60
2023-01-18T08:14:59.101Z,21.50
2023-01-18T08:15:59.165Z,20.30
2023-01-18T08:16:59.081Z,19.50
2023-01-18T08:17:59.092Z,17.90
2023-01-18T08:18:59.074Z,18.40
2023-01-18T08:19:59.086Z,18.60
2023-01-18T08:20:59.126Z,17.10
2023-01-18T08:21:59.039Z,16.90
2023-01-18T08:22:59.461Z,16.30
2023-01-18T08:23:59.071Z,15.70
2023-01-18T08:24:59.035Z,17.00
2023-01-18T08:25:59.018Z,16.90
2023-01-18T08:26:59.054Z,20.90
2023-01-18T08:27:59.029Z,21.00
2023-01-18T08:28:59.006Z,20.70
2023-01-18T08:29:59.002Z,19.00
2023-01-18T08:30:59.017Z,17.80
2023-01-18T08:31:59.014Z,16.60
2023-01-18T08:33:30.911Z,17.20
2023-01-18T08:33:58.986Z,16.10
2023-01-18T08:34:58.997Z,16.70
2023-01-18T08:35:58.969Z,17.90
2023-01-18T08:36:59.028Z,18.90
2023-01-18T08:37:58.948Z,24.30
2023-01-18T08:38:59.004Z,28.00
2023-01-18T08:39:59.001Z,24.70
2023-01-18T08:40:58.927Z,23.90
2023-01-18T08:41:58.905Z,21.60
2023-01-18T08:42:59.370Z,20.10
2023-01-18T08:43:58.891Z,19.10
2023-01-18T08:44:58.914Z,18.70
2023-01-18T08:45:58.897Z,17.70
2023-01-18T08:46:58.919Z,14.30
2023-01-18T08:47:58.870Z,16.00
2023-01-18T08:48:59.892Z,15.90
2023-01-18T08:49:58.924Z,17.30
2023-01-18T08:50:58.866Z,16.80
2023-01-18T08:51:58.855Z,17.60
2023-01-18T08:52:59.339Z,18.30
2023-01-18T08:53:58.838Z,23.80
2023-01-18T08:54:58.809Z,27.10
2023-01-18T08:55:59.688Z,29.10
2023-01-18T08:56:58.812Z,114.50
2023-01-18T08:57:58.838Z,19.20
2023-01-18T08:58:58.966Z,40.50
2023-01-18T08:59:58.784Z,35.90
2023-01-18T09:00:58.804Z,25.40
2023-01-18T09:01:58.888Z,16.30
2023-01-18T09:02:59.269Z,14.60
2023-01-18T09:03:58.787Z,13.90
2023-01-18T09:04:58.733Z,14.40
2023-01-18T09:05:58.719Z,13.60
2023-01-18T09:06:58.736Z,14.40
2023-01-18T09:07:58.737Z,13.90
2023-01-18T09:08:58.748Z,13.10
2023-01-18T09:09:58.699Z,13.00
2023-01-18T09:10:58.688Z,11.90
2023-01-18T09:11:58.699Z,10.00
2023-01-18T09:12:58.956Z,9.50
2023-01-18T09:14:01.300Z,9.00
2023-01-18T09:14:59.673Z,8.90
2023-01-18T09:15:58.672Z,9.40
2023-01-18T09:16:58.681Z,9.20
2023-01-18T09:17:58.645Z,9.20
2023-01-18T09:18:58.753Z,8.20
2023-01-18T09:19:58.671Z,8.90
2023-01-18T09:20:58.625Z,9.40
2023-01-18T09:21:58.657Z,10.70
2023-01-18T09:22:58.927Z,11.50
2023-01-18T09:23:58.629Z,13.50
2023-01-18T09:24:58.612Z,12.80
2023-01-18T09:25:58.619Z,12.30
2023-01-18T09:26:58.581Z,11.90
2023-01-18T09:27:59.589Z,12.90
2023-01-18T09:28:58.565Z,11.90
2023-01-18T09:29:58.573Z,10.90
2023-01-18T09:30:59.155Z,10.70
2023-01-18T09:31:58.529Z,10.50
2023-01-18T09:32:59.110Z,11.20
2023-01-18T09:34:17.405Z,11.20
2023-01-18T09:35:00.517Z,9.30
2023-01-18T09:35:58.546Z,8.70
2023-01-18T09:36:58.515Z,10.30
2023-01-18T09:37:58.494Z,11.20
2023-01-18T09:38:58.474Z,10.40
2023-01-18T09:39:58.500Z,8.80
2023-01-18T09:40:58.477Z,8.90
2023-01-18T09:41:58.487Z,9.20
2023-01-18T09:42:58.796Z,8.20
2023-01-18T09:43:58.472Z,8.20
2023-01-18T09:44:58.478Z,9.60
2023-01-18T09:45:58.467Z,9.00
2023-01-18T09:46:58.495Z,9.40
2023-01-18T09:47:58.435Z,8.40
2023-01-18T09:48:58.429Z,9.90
2023-01-18T09:49:58.413Z,10.00
2023-01-18T09:50:58.406Z,9.50
2023-01-18T09:51:58.414Z,8.80
2023-01-18T09:52:58.739Z,7.90
2023-01-18T09:53:58.411Z,7.20
2023-01-18T09:54:58.364Z,7.10
2023-01-18T09:55:59.396Z,7.70
2023-01-18T09:56:58.394Z,6.90
2023-01-18T09:57:58.373Z,6.70
2023-01-18T09:58:58.340Z,19.30
2023-01-18T09:59:58.327Z,24.40
2023-01-18T10:00:58.435Z,41.00
2023-01-18T10:01:58.496Z,22.80
2023-01-18T10:02:58.625Z,13.40
2023-01-18T10:03:58.341Z,8.80
2023-01-18T10:04:58.286Z,7.70
2023-01-18T10:05:58.294Z,6.30
2023-01-18T10:06:58.274Z,5.20
2023-01-18T10:07:58.296Z,5.70
2023-01-18T10:08:58.270Z,6.30
2023-01-18T10:09:58.274Z,7.10
2023-01-18T10:10:58.291Z,10.20
2023-01-18T10:11:58.304Z,12.10
2023-01-18T10:12:58.464Z,8.60
2023-01-18T10:13:58.260Z,10.20
2023-01-18T10:14:58.198Z,7.70
2023-01-18T10:15:58.256Z,7.00
2023-01-18T10:16:58.210Z,7.00
2023-01-18T10:17:58.220Z,7.20
2023-01-18T10:18:58.208Z,6.60
2023-01-18T10:19:58.176Z,7.30
2023-01-18T10:20:58.171Z,7.00
2023-01-18T10:21:58.173Z,6.30
2023-01-18T10:22:58.557Z,6.70
2023-01-18T10:23:58.167Z,6.80
2023-01-18T10:24:58.159Z,6.70
2023-01-18T10:25:58.155Z,6.30
2023-01-18T10:26:58.128Z,6.70
2023-01-18T10:27:58.114Z,6.60
2023-01-18T10:28:58.148Z,6.60
2023-01-18T10:29:58.112Z,6.20
2023-01-18T10:30:59.006Z,7.40
2023-01-18T10:31:58.075Z,8.40
2023-01-18T10:32:58.534Z,7.90
2023-01-18T10:33:58.076Z,6.60
2023-01-18T10:34:58.076Z,7.10
2023-01-18T10:35:58.114Z,7.70
2023-01-18T10:36:58.068Z,7.90
2023-01-18T10:37:59.218Z,8.50
2023-01-18T10:38:58.024Z,8.80
2023-01-18T10:39:58.077Z,6.60
2023-01-18T10:40:58.031Z,6.60
2023-01-18T10:41:58.044Z,5.70
2023-01-18T10:42:58.384Z,6.10
2023-01-18T10:43:57.990Z,6.40
2023-01-18T10:44:57.977Z,4.30
2023-01-18T10:45:58.752Z,4.40
2023-01-18T10:46:58.026Z,4.10
2023-01-18T10:47:57.980Z,3.60
2023-01-18T10:48:57.971Z,3.80
2023-01-18T10:49:57.976Z,3.70
2023-01-18T10:50:57.966Z,5.30
2023-01-18T10:51:58.048Z,6.00
2023-01-18T10:52:58.283Z,4.20
2023-01-18T10:53:57.915Z,4.20
2023-01-18T10:54:57.914Z,4.50
2023-01-18T10:55:58.079Z,4.00
2023-01-18T10:56:57.917Z,4.20
2023-01-18T10:57:58.318Z,4.70
2023-01-18T10:58:58.612Z,6.20
2023-01-18T10:59:58.621Z,5.60
2023-01-18T11:00:57.909Z,5.00
2023-01-18T11:01:58.028Z,4.50
2023-01-18T11:02:58.162Z,3.80
2023-01-18T11:03:57.869Z,5.20
2023-01-18T11:04:57.831Z,6.60
2023-01-18T11:05:58.474Z,5.00
2023-01-18T11:06:57.830Z,3.80
2023-01-18T11:07:57.820Z,5.30
2023-01-18T11:08:58.444Z,5.20
2023-01-18T11:09:57.790Z,5.30
2023-01-18T11:10:57.809Z,4.80
2023-01-18T11:11:58.556Z,3.90
2023-01-18T11:12:58.138Z,3.90
2023-01-18T11:13:57.802Z,3.20
2023-01-18T11:14:57.778Z,3.90
2023-01-18T11:15:57.772Z,3.50
2023-01-18T11:16:57.740Z,3.50
2023-01-18T11:17:57.792Z,3.80
2023-01-18T11:18:57.757Z,3.90
2023-01-18T11:19:57.778Z,3.40
2023-01-18T11:20:57.734Z,3.70
2023-01-18T11:21:57.739Z,3.20
2023-01-18T11:22:57.903Z,3.60
2023-01-18T11:23:57.691Z,3.90
2023-01-18T11:24:57.730Z,3.70
2023-01-18T11:26:03.628Z,3.40
2023-01-18T11:26:58.681Z,3.30
2023-01-18T11:27:58.891Z,3.20
2023-01-18T11:28:57.654Z,3.10
2023-01-18T11:29:57.684Z,3.10
2023-01-18T11:30:57.664Z,3.30
2023-01-18T11:31:58.634Z,3.10
2023-01-18T11:32:57.923Z,3.60
2023-01-18T11:33:57.643Z,4.00
2023-01-18T11:34:57.620Z,3.50
2023-01-18T11:35:57.662Z,3.90
2023-01-18T11:36:57.622Z,3.90
2023-01-18T11:37:58.020Z,4.00
2023-01-18T11:38:57.581Z,3.80
2023-01-18T11:39:57.597Z,3.50
2023-01-18T11:40:57.599Z,4.10
2023-01-18T11:41:57.567Z,4.10
2023-01-18T11:42:57.647Z,3.90
2023-01-18T11:43:57.576Z,4.50
2023-01-18T11:44:57.538Z,4.80
2023-01-18T11:45:57.636Z,4.00
2023-01-18T11:46:57.538Z,4.00
2023-01-18T11:47:58.029Z,4.40
2023-01-18T11:48:57.514Z,4.20
2023-01-18T11:49:58.123Z,4.30
2023-01-18T11:50:57.502Z,4.20
2023-01-18T11:51:57.525Z,5.60
2023-01-18T11:52:57.690Z,8.00
2023-01-18T11:53:57.517Z,5.80
2023-01-18T11:54:57.486Z,4.10
2023-01-18T11:55:57.472Z,3.90
2023-01-18T11:56:57.464Z,4.00
2023-01-18T11:57:57.501Z,4.10
2023-01-18T11:58:57.482Z,4.50
2023-01-18T11:59:57.412Z,5.20
2023-01-18T12:00:57.431Z,5.30
2023-01-18T12:01:57.454Z,4.90
2023-01-18T12:02:57.806Z,3.70
2023-01-18T12:03:58.127Z,4.20
2023-01-18T12:04:57.383Z,5.00
2023-01-18T12:05:57.372Z,3.90
2023-01-18T12:06:57.382Z,5.20
2023-01-18T12:07:57.689Z,4.60
2023-01-18T12:08:57.432Z,5.10
2023-01-18T12:09:57.362Z,4.50
2023-01-18T12:10:57.332Z,4.00
2023-01-18T12:12:06.504Z,3.90
2023-01-18T12:12:59.324Z,4.00
2023-01-18T12:14:04.189Z,4.20
2023-01-18T12:14:57.338Z,5.10
2023-01-18T12:15:57.310Z,4.60
2023-01-18T12:16:57.333Z,4.50
2023-01-18T12:18:11.995Z,3.70
2023-01-18T12:18:59.275Z,4.00
2023-01-18T12:19:57.338Z,3.70
2023-01-18T12:20:57.295Z,3.90
2023-01-18T12:21:57.269Z,3.70
2023-01-18T12:22:57.332Z,3.80
2023-01-18T12:23:57.242Z,3.50
2023-01-18T12:24:57.226Z,3.50
2023-01-18T12:26:11.017Z,3.10
2023-01-18T12:27:00.024Z,2.90
2023-01-18T12:27:57.512Z,3.20
2023-01-18T12:28:57.221Z,3.10
2023-01-18T12:29:57.178Z,3.20
2023-01-18T12:30:57.227Z,3.20
2023-01-18T12:31:57.221Z,4.20
2023-01-18T12:32:57.566Z,4.20
2023-01-18T12:33:57.161Z,3.70
2023-01-18T12:34:57.183Z,3.70
2023-01-18T12:35:57.185Z,3.70
2023-01-18T12:36:57.357Z,3.80
2023-01-18T12:37:57.574Z,4.10
2023-01-18T12:38:57.156Z,4.10
2023-01-18T12:39:57.132Z,4.10
2023-01-18T12:40:57.132Z,4.80
2023-01-18T12:41:57.161Z,4.40
2023-01-18T12:42:57.156Z,3.80
2023-01-18T12:43:57.965Z,3.70
2023-01-18T12:44:58.237Z,4.50
2023-01-18T12:45:57.149Z,4.00
2023-01-18T12:46:57.624Z,3.40
2023-01-18T12:47:57.622Z,3.30
2023-01-18T12:48:57.117Z,3.40
2023-01-18T12:49:57.652Z,4.10
2023-01-18T12:50:57.625Z,3.80
2023-01-18T12:52:12.787Z,4.00
2023-01-18T12:52:59.667Z,3.90
2023-01-18T12:53:57.042Z,3.80
2023-01-18T12:54:57.046Z,3.50
2023-01-18T12:55:58.148Z,3.80
2023-01-18T12:56:57.051Z,3.70
2023-01-18T12:57:57.029Z,3.80
2023-01-18T12:58:57.687Z,4.10
2023-01-18T12:59:56.986Z,3.90
2023-01-18T13:00:58.199Z,3.70
2023-01-18T13:01:57.009Z,3.70
2023-01-18T13:02:57.752Z,4.10
2023-01-18T13:03:57.637Z,4.00
2023-01-18T13:04:56.947Z,3.80
2023-01-18T13:05:56.969Z,3.40
2023-01-18T13:06:56.954Z,3.80
2023-01-18T13:07:57.860Z,4.10
2023-01-18T13:08:56.930Z,3.90
2023-01-18T13:09:56.965Z,3.80
2023-01-18T13:10:56.975Z,4.10
2023-01-18T13:11:57.501Z,3.70
2023-01-18T13:12:57.004Z,3.60
2023-01-18T13:13:56.879Z,3.50
2023-01-18T13:14:56.881Z,3.60
2023-01-18T13:15:57.109Z,3.60
2023-01-18T13:16:57.527Z,3.40
2023-01-18T13:17:57.219Z,3.50
2023-01-18T13:18:56.877Z,3.70
2023-01-18T13:19:56.935Z,3.90